sensor_id;sensor_type;location;lat;lon;timestamp;temperature;humidity
73149;SHT30;61346;48.930;2.266;2023-02-15T00:01:43;9.15;66.33
73149;SHT30;61346;48.930;2.266;2023-02-15T00:04:09;9.10;66.51
73149;SHT30;61346;48.930;2.266;2023-02-15T00:06:37;9.06;66.57
73149;SHT30;61346;48.930;2.266;2023-02-15T00:09:05;9.04;66.80
73149;SHT30;61346;48.930;2.266;2023-02-15T00:11:30;9.00;66.83
73149;SHT30;61346;48.930;2.266;2023-02-15T00:14:13;8.97;66.60
73149;SHT30;61346;48.930;2.266;2023-02-15T00:16:43;8.94;66.71
73149;SHT30;61346;48.930;2.266;2023-02-15T00:19:10;8.86;67.16
73149;SHT30;61346;48.930;2.266;2023-02-15T00:21:37;8.80;67.14
73149;SHT30;61346;48.930;2.266;2023-02-15T00:24:05;8.76;66.91
73149;SHT30;61346;48.930;2.266;2023-02-15T00:26:31;8.76;67.01
73149;SHT30;61346;48.930;2.266;2023-02-15T00:28:57;8.72;67.20
73149;SHT30;61346;48.930;2.266;2023-02-15T00:31:28;8.72;67.24
73149;SHT30;61346;48.930;2.266;2023-02-15T00:33:55;8.66;67.14
73149;SHT30;61346;48.930;2.266;2023-02-15T00:36:20;8.63;67.01
73149;SHT30;61346;48.930;2.266;2023-02-15T00:38:46;8.60;67.08
73149;SHT30;61346;48.930;2.266;2023-02-15T00:41:12;8.56;67.23
73149;SHT30;61346;48.930;2.266;2023-02-15T00:43:37;8.53;67.40
73149;SHT30;61346;48.930;2.266;2023-02-15T00:46:04;8.52;67.23
73149;SHT30;61346;48.930;2.266;2023-02-15T00:48:30;8.49;67.43
73149;SHT30;61346;48.930;2.266;2023-02-15T00:50:58;8.45;67.57
73149;SHT30;61346;48.930;2.266;2023-02-15T00:53:25;8.41;67.74
73149;SHT30;61346;48.930;2.266;2023-02-15T00:55:55;8.34;67.58
73149;SHT30;61346;48.930;2.266;2023-02-15T00:58:22;8.30;67.48
73149;SHT30;61346;48.930;2.266;2023-02-15T01:00:48;8.24;67.58
73149;SHT30;61346;48.930;2.266;2023-02-15T01:03:19;8.21;67.93
73149;SHT30;61346;48.930;2.266;2023-02-15T01:05:50;8.20;67.69
73149;SHT30;61346;48.930;2.266;2023-02-15T01:08:16;8.13;68.00
73149;SHT30;61346;48.930;2.266;2023-02-15T01:10:41;8.11;67.81
73149;SHT30;61346;48.930;2.266;2023-02-15T01:13:10;8.11;68.17
73149;SHT30;61346;48.930;2.266;2023-02-15T01:15:39;8.07;68.00
73149;SHT30;61346;48.930;2.266;2023-02-15T01:18:05;8.05;68.09
73149;SHT30;61346;48.930;2.266;2023-02-15T01:20:34;8.04;68.34
73149;SHT30;61346;48.930;2.266;2023-02-15T01:23:00;8.00;68.19
73149;SHT30;61346;48.930;2.266;2023-02-15T01:25:25;8.00;68.14
73149;SHT30;61346;48.930;2.266;2023-02-15T01:27:51;7.93;68.49
73149;SHT30;61346;48.930;2.266;2023-02-15T01:30:16;7.93;68.40
73149;SHT30;61346;48.930;2.266;2023-02-15T01:32:42;7.89;68.73
73149;SHT30;61346;48.930;2.266;2023-02-15T01:35:10;7.84;68.65
73149;SHT30;61346;48.930;2.266;2023-02-15T01:37:36;7.83;68.80
73149;SHT30;61346;48.930;2.266;2023-02-15T01:40:07;7.80;68.94
73149;SHT30;61346;48.930;2.266;2023-02-15T01:42:33;7.79;68.84
73149;SHT30;61346;48.930;2.266;2023-02-15T01:45:04;7.76;68.92
73149;SHT30;61346;48.930;2.266;2023-02-15T01:52:46;7.67;68.75
73149;SHT30;61346;48.930;2.266;2023-02-15T01:55:13;7.65;69.03
73149;SHT30;61346;48.930;2.266;2023-02-15T01:57:39;7.61;68.96
73149;SHT30;61346;48.930;2.266;2023-02-15T02:00:08;7.59;69.18
73149;SHT30;61346;48.930;2.266;2023-02-15T02:02:34;7.56;68.94
73149;SHT30;61346;48.930;2.266;2023-02-15T02:05:04;7.54;69.01
73149;SHT30;61346;48.930;2.266;2023-02-15T02:07:36;7.52;69.04
73149;SHT30;61346;48.930;2.266;2023-02-15T02:10:05;7.49;69.17
73149;SHT30;61346;48.930;2.266;2023-02-15T02:12:31;7.48;69.28
73149;SHT30;61346;48.930;2.266;2023-02-15T02:14:58;7.44;69.20
73149;SHT30;61346;48.930;2.266;2023-02-15T02:28:51;7.31;69.39
73149;SHT30;61346;48.930;2.266;2023-02-15T02:34:01;7.32;69.40
73149;SHT30;61346;48.930;2.266;2023-02-15T02:45:02;7.22;69.60
73149;SHT30;61346;48.930;2.266;2023-02-15T02:47:50;7.17;69.65
73149;SHT30;61346;48.930;2.266;2023-02-15T02:50:23;7.12;69.67
73149;SHT30;61346;48.930;2.266;2023-02-15T02:52:53;7.08;69.51
73149;SHT30;61346;48.930;2.266;2023-02-15T02:55:27;7.07;69.67
73149;SHT30;61346;48.930;2.266;2023-02-15T03:00:35;7.04;70.03
73149;SHT30;61346;48.930;2.266;2023-02-15T03:03:20;7.00;69.97
73149;SHT30;61346;48.930;2.266;2023-02-15T03:05:49;6.96;70.11
73149;SHT30;61346;48.930;2.266;2023-02-15T03:08:20;6.93;70.33
73149;SHT30;61346;48.930;2.266;2023-02-15T03:10:51;6.87;70.23
73149;SHT30;61346;48.930;2.266;2023-02-15T03:13:18;6.87;70.23
73149;SHT30;61346;48.930;2.266;2023-02-15T03:15:45;6.82;70.40
73149;SHT30;61346;48.930;2.266;2023-02-15T03:18:35;6.83;70.35
73149;SHT30;61346;48.930;2.266;2023-02-15T03:21:06;6.84;70.37
73149;SHT30;61346;48.930;2.266;2023-02-15T03:23:34;6.86;70.13
73149;SHT30;61346;48.930;2.266;2023-02-15T03:26:07;6.80;70.19
73149;SHT30;61346;48.930;2.266;2023-02-15T03:28:42;6.79;70.38
73149;SHT30;61346;48.930;2.266;2023-02-15T03:31:11;6.79;70.06
73149;SHT30;61346;48.930;2.266;2023-02-15T03:33:42;6.75;70.05
73149;SHT30;61346;48.930;2.266;2023-02-15T03:36:41;6.75;70.23
73149;SHT30;61346;48.930;2.266;2023-02-15T03:39:20;6.72;70.16
73149;SHT30;61346;48.930;2.266;2023-02-15T03:42:03;6.69;70.16
73149;SHT30;61346;48.930;2.266;2023-02-15T03:44:31;6.65;70.25
73149;SHT30;61346;48.930;2.266;2023-02-15T03:47:14;6.65;70.37
73149;SHT30;61346;48.930;2.266;2023-02-15T03:49:55;6.66;70.42
73149;SHT30;61346;48.930;2.266;2023-02-15T03:52:25;6.59;70.52
73149;SHT30;61346;48.930;2.266;2023-02-15T03:54:51;6.55;70.59
73149;SHT30;61346;48.930;2.266;2023-02-15T04:05:52;6.50;70.58
73149;SHT30;61346;48.930;2.266;2023-02-15T04:08:18;6.52;70.47
73149;SHT30;61346;48.930;2.266;2023-02-15T04:10:44;6.48;70.61
73149;SHT30;61346;48.930;2.266;2023-02-15T04:13:23;6.46;70.46
73149;SHT30;61346;48.930;2.266;2023-02-15T04:15:50;6.49;70.42
73149;SHT30;61346;48.930;2.266;2023-02-15T04:18:42;6.45;70.40
73149;SHT30;61346;48.930;2.266;2023-02-15T04:21:29;6.39;70.49
73149;SHT30;61346;48.930;2.266;2023-02-15T04:24:14;6.41;70.37
73149;SHT30;61346;48.930;2.266;2023-02-15T04:26:59;6.32;70.30
73149;SHT30;61346;48.930;2.266;2023-02-15T04:29:26;6.28;70.30
73149;SHT30;61346;48.930;2.266;2023-02-15T04:31:53;6.28;70.42
73149;SHT30;61346;48.930;2.266;2023-02-15T04:34:19;6.25;70.55
73149;SHT30;61346;48.930;2.266;2023-02-15T04:36:44;6.26;70.89
73149;SHT30;61346;48.930;2.266;2023-02-15T04:39:13;6.25;70.58
73149;SHT30;61346;48.930;2.266;2023-02-15T04:41:39;6.22;70.41
73149;SHT30;61346;48.930;2.266;2023-02-15T04:44:05;6.18;70.57
73149;SHT30;61346;48.930;2.266;2023-02-15T04:46:31;6.18;70.80
73149;SHT30;61346;48.930;2.266;2023-02-15T04:48:56;6.18;70.80
73149;SHT30;61346;48.930;2.266;2023-02-15T04:51:22;6.17;70.87
73149;SHT30;61346;48.930;2.266;2023-02-15T04:53:49;6.13;70.86
73149;SHT30;61346;48.930;2.266;2023-02-15T04:56:15;6.15;70.62
73149;SHT30;61346;48.930;2.266;2023-02-15T04:58:42;6.11;70.87
73149;SHT30;61346;48.930;2.266;2023-02-15T05:01:08;6.11;70.68
73149;SHT30;61346;48.930;2.266;2023-02-15T05:03:34;6.10;70.81
73149;SHT30;61346;48.930;2.266;2023-02-15T05:05:59;6.07;70.85
73149;SHT30;61346;48.930;2.266;2023-02-15T05:08:25;6.04;70.96
73149;SHT30;61346;48.930;2.266;2023-02-15T05:10:50;6.06;71.06
73149;SHT30;61346;48.930;2.266;2023-02-15T05:13:17;6.06;70.87
73149;SHT30;61346;48.930;2.266;2023-02-15T05:15:51;6.03;71.10
73149;SHT30;61346;48.930;2.266;2023-02-15T05:18:18;6.03;70.89
73149;SHT30;61346;48.930;2.266;2023-02-15T05:20:43;6.01;70.93
73149;SHT30;61346;48.930;2.266;2023-02-15T05:23:11;5.98;71.25
73149;SHT30;61346;48.930;2.266;2023-02-15T05:25:36;6.00;71.32
73149;SHT30;61346;48.930;2.266;2023-02-15T05:28:21;6.00;71.08
73149;SHT30;61346;48.930;2.266;2023-02-15T05:30:48;5.98;71.12
73149;SHT30;61346;48.930;2.266;2023-02-15T05:33:14;5.97;71.11
73149;SHT30;61346;48.930;2.266;2023-02-15T05:35:40;5.96;71.07
73149;SHT30;61346;48.930;2.266;2023-02-15T05:38:05;5.93;71.28
73149;SHT30;61346;48.930;2.266;2023-02-15T05:40:31;5.94;71.30
73149;SHT30;61346;48.930;2.266;2023-02-15T05:42:56;5.89;71.14
73149;SHT30;61346;48.930;2.266;2023-02-15T05:45:22;5.89;70.99
73149;SHT30;61346;48.930;2.266;2023-02-15T05:47:48;5.85;70.87
73149;SHT30;61346;48.930;2.266;2023-02-15T05:50:13;5.85;70.85
73149;SHT30;61346;48.930;2.266;2023-02-15T05:52:38;5.79;70.95
73149;SHT30;61346;48.930;2.266;2023-02-15T05:55:05;5.77;71.12
73149;SHT30;61346;48.930;2.266;2023-02-15T05:57:34;5.79;71.15
73149;SHT30;61346;48.930;2.266;2023-02-15T06:00:04;5.74;71.24
73149;SHT30;61346;48.930;2.266;2023-02-15T06:02:35;5.73;71.18
73149;SHT30;61346;48.930;2.266;2023-02-15T06:05:09;5.69;71.08
73149;SHT30;61346;48.930;2.266;2023-02-15T06:07:36;5.66;71.06
73149;SHT30;61346;48.930;2.266;2023-02-15T06:10:03;5.65;71.11
73149;SHT30;61346;48.930;2.266;2023-02-15T06:12:28;5.65;71.18
73149;SHT30;61346;48.930;2.266;2023-02-15T06:14:54;5.63;71.22
73149;SHT30;61346;48.930;2.266;2023-02-15T06:17:22;5.63;71.32
73149;SHT30;61346;48.930;2.266;2023-02-15T06:19:51;5.60;71.37
73149;SHT30;61346;48.930;2.266;2023-02-15T06:22:17;5.58;71.40
73149;SHT30;61346;48.930;2.266;2023-02-15T06:24:43;5.56;71.57
73149;SHT30;61346;48.930;2.266;2023-02-15T06:27:10;5.59;71.59
73149;SHT30;61346;48.930;2.266;2023-02-15T06:29:36;5.59;71.69
73149;SHT30;61346;48.930;2.266;2023-02-15T06:32:01;5.58;71.77
73149;SHT30;61346;48.930;2.266;2023-02-15T06:34:27;5.60;71.73
73149;SHT30;61346;48.930;2.266;2023-02-15T06:36:52;5.60;72.12
73149;SHT30;61346;48.930;2.266;2023-02-15T06:39:17;5.59;72.00
73149;SHT30;61346;48.930;2.266;2023-02-15T06:41:43;5.62;71.94
73149;SHT30;61346;48.930;2.266;2023-02-15T06:44:08;5.62;72.12
73149;SHT30;61346;48.930;2.266;2023-02-15T06:46:34;5.65;72.36
73149;SHT30;61346;48.930;2.266;2023-02-15T06:48:59;5.69;72.44
73149;SHT30;61346;48.930;2.266;2023-02-15T06:51:25;5.66;72.30
73149;SHT30;61346;48.930;2.266;2023-02-15T06:53:51;5.67;72.14
73149;SHT30;61346;48.930;2.266;2023-02-15T06:56:16;5.66;72.11
73149;SHT30;61346;48.930;2.266;2023-02-15T06:58:42;5.69;72.14
73149;SHT30;61346;48.930;2.266;2023-02-15T07:01:14;5.70;72.16
73149;SHT30;61346;48.930;2.266;2023-02-15T07:03:40;5.70;72.27
73149;SHT30;61346;48.930;2.266;2023-02-15T07:06:08;5.73;72.42
73149;SHT30;61346;48.930;2.266;2023-02-15T07:08:37;5.74;72.32
73149;SHT30;61346;48.930;2.266;2023-02-15T07:11:04;5.77;72.19
73149;SHT30;61346;48.930;2.266;2023-02-15T07:13:48;5.77;72.17
73149;SHT30;61346;48.930;2.266;2023-02-15T07:16:13;5.80;72.31
73149;SHT30;61346;48.930;2.266;2023-02-15T07:18:41;5.83;72.13
73149;SHT30;61346;48.930;2.266;2023-02-15T07:40:56;6.18;72.13
73149;SHT30;61346;48.930;2.266;2023-02-15T07:43:28;6.21;72.12
73149;SHT30;61346;48.930;2.266;2023-02-15T07:46:00;6.22;72.29
73149;SHT30;61346;48.930;2.266;2023-02-15T07:48:54;6.32;72.46
73149;SHT30;61346;48.930;2.266;2023-02-15T07:51:46;6.36;72.40
73149;SHT30;61346;48.930;2.266;2023-02-15T07:54:42;6.42;72.34
73149;SHT30;61346;48.930;2.266;2023-02-15T09:03:49;7.80;71.38
73149;SHT30;61346;48.930;2.266;2023-02-15T10:11:46;10.06;69.57
73149;SHT30;61346;48.930;2.266;2023-02-15T10:14:42;10.21;68.98
73149;SHT30;61346;48.930;2.266;2023-02-15T10:23:13;10.62;68.20
73149;SHT30;61346;48.930;2.266;2023-02-15T10:28:31;10.83;68.23
73149;SHT30;61346;48.930;2.266;2023-02-15T10:31:15;10.93;67.95
73149;SHT30;61346;48.930;2.266;2023-02-15T10:33:43;11.03;67.64
73149;SHT30;61346;48.930;2.266;2023-02-15T10:39:05;11.19;67.42
73149;SHT30;61346;48.930;2.266;2023-02-15T10:44:29;11.37;67.27
73149;SHT30;61346;48.930;2.266;2023-02-15T10:47:37;11.48;66.64
73149;SHT30;61346;48.930;2.266;2023-02-15T10:56:31;11.66;66.19
73149;SHT30;61346;48.930;2.266;2023-02-15T11:01:21;11.86;65.82
73149;SHT30;61346;48.930;2.266;2023-02-15T11:06:39;12.10;65.80
73149;SHT30;61346;48.930;2.266;2023-02-15T11:09:11;12.16;65.79
73149;SHT30;61346;48.930;2.266;2023-02-15T11:11:40;12.30;65.65
73149;SHT30;61346;48.930;2.266;2023-02-15T11:21:59;12.71;64.49
73149;SHT30;61346;48.930;2.266;2023-02-15T11:50:05;14.08;62.66
73149;SHT30;61346;48.930;2.266;2023-02-15T12:02:01;14.88;61.60
73149;SHT30;61346;48.930;2.266;2023-02-15T12:08:42;15.68;59.39
73149;SHT30;61346;48.930;2.266;2023-02-15T12:11:22;16.04;58.37
73149;SHT30;61346;48.930;2.266;2023-02-15T12:14:00;16.32;58.89
73149;SHT30;61346;48.930;2.266;2023-02-15T12:16:27;16.59;58.92
73149;SHT30;61346;48.930;2.266;2023-02-15T12:18:56;16.80;58.80
73149;SHT30;61346;48.930;2.266;2023-02-15T12:21:34;17.02;57.71
73149;SHT30;61346;48.930;2.266;2023-02-15T12:24:30;17.21;58.43
73149;SHT30;61346;48.930;2.266;2023-02-15T12:26:58;17.39;58.86
73149;SHT30;61346;48.930;2.266;2023-02-15T12:29:29;17.50;58.27
73149;SHT30;61346;48.930;2.266;2023-02-15T12:31:56;17.63;57.93
73149;SHT30;61346;48.930;2.266;2023-02-15T12:36:54;17.86;57.48
73149;SHT30;61346;48.930;2.266;2023-02-15T12:39:28;17.98;56.41
73149;SHT30;61346;48.930;2.266;2023-02-15T12:44:24;18.22;56.48
73149;SHT30;61346;48.930;2.266;2023-02-15T12:47:32;18.33;57.28
73149;SHT30;61346;48.930;2.266;2023-02-15T12:52:43;18.56;55.30
73149;SHT30;61346;48.930;2.266;2023-02-15T12:55:19;18.57;55.72
73149;SHT30;61346;48.930;2.266;2023-02-15T12:57:45;18.59;53.89
73149;SHT30;61346;48.930;2.266;2023-02-15T13:02:49;18.56;54.31
73149;SHT30;61346;48.930;2.266;2023-02-15T13:05:36;18.52;53.29
73149;SHT30;61346;48.930;2.266;2023-02-15T13:08:21;18.49;53.48
73149;SHT30;61346;48.930;2.266;2023-02-15T13:10:57;18.49;52.14
73149;SHT30;61346;48.930;2.266;2023-02-15T13:13:28;18.46;51.38
73149;SHT30;61346;48.930;2.266;2023-02-15T13:16:14;18.41;52.15
73149;SHT30;61346;48.930;2.266;2023-02-15T13:18:45;18.42;51.48
73149;SHT30;61346;48.930;2.266;2023-02-15T13:21:16;18.45;51.40
73149;SHT30;61346;48.930;2.266;2023-02-15T13:23:46;18.46;51.84
73149;SHT30;61346;48.930;2.266;2023-02-15T13:26:20;18.49;53.00
73149;SHT30;61346;48.930;2.266;2023-02-15T13:28:48;18.52;53.50
73149;SHT30;61346;48.930;2.266;2023-02-15T13:31:18;18.49;52.61
73149;SHT30;61346;48.930;2.266;2023-02-15T13:33:51;18.49;52.24
73149;SHT30;61346;48.930;2.266;2023-02-15T13:36:30;18.45;53.21
73149;SHT30;61346;48.930;2.266;2023-02-15T13:39:22;18.42;52.62
73149;SHT30;61346;48.930;2.266;2023-02-15T13:57:21;18.15;53.41
73149;SHT30;61346;48.930;2.266;2023-02-15T14:11:04;18.12;52.97
73149;SHT30;61346;48.930;2.266;2023-02-15T14:16:32;18.06;52.22
73149;SHT30;61346;48.930;2.266;2023-02-15T14:21:34;18.01;52.47
73149;SHT30;61346;48.930;2.266;2023-02-15T14:27:23;17.90;52.48
73149;SHT30;61346;48.930;2.266;2023-02-15T14:29:57;17.86;52.86
73149;SHT30;61346;48.930;2.266;2023-02-15T14:34:59;17.83;52.59
73149;SHT30;61346;48.930;2.266;2023-02-15T14:37:43;17.81;52.53
73149;SHT30;61346;48.930;2.266;2023-02-15T14:59:46;17.95;51.89
73149;SHT30;61346;48.930;2.266;2023-02-15T15:02:39;18.01;51.92
73149;SHT30;61346;48.930;2.266;2023-02-15T15:05:15;17.98;52.24
73149;SHT30;61346;48.930;2.266;2023-02-15T15:07:48;17.98;51.87
73149;SHT30;61346;48.930;2.266;2023-02-15T15:12:53;18.02;51.85
73149;SHT30;61346;48.930;2.266;2023-02-15T15:25:43;18.22;51.88
73149;SHT30;61346;48.930;2.266;2023-02-15T15:31:04;18.38;51.65
73149;SHT30;61346;48.930;2.266;2023-02-15T15:39:18;18.41;51.86
73149;SHT30;61346;48.930;2.266;2023-02-15T15:41:53;18.36;51.38
73149;SHT30;61346;48.930;2.266;2023-02-15T15:47:33;18.18;52.03
73149;SHT30;61346;48.930;2.266;2023-02-15T15:50:11;18.09;51.78
73149;SHT30;61346;48.930;2.266;2023-02-15T15:52:37;17.97;51.75
73149;SHT30;61346;48.930;2.266;2023-02-15T15:55:15;17.84;51.95
73149;SHT30;61346;48.930;2.266;2023-02-15T15:57:43;17.69;51.99
73149;SHT30;61346;48.930;2.266;2023-02-15T16:03:05;17.45;52.39
73149;SHT30;61346;48.930;2.266;2023-02-15T16:05:37;17.32;52.18
73149;SHT30;61346;48.930;2.266;2023-02-15T16:08:04;17.21;52.34
73149;SHT30;61346;48.930;2.266;2023-02-15T16:10:31;17.11;52.40
73149;SHT30;61346;48.930;2.266;2023-02-15T16:12:58;17.02;52.82
73149;SHT30;61346;48.930;2.266;2023-02-15T16:15:45;16.94;52.86
73149;SHT30;61346;48.930;2.266;2023-02-15T16:18:16;16.87;53.03
73149;SHT30;61346;48.930;2.266;2023-02-15T16:20:50;16.80;52.96
73149;SHT30;61346;48.930;2.266;2023-02-15T16:28:52;16.55;53.27
73149;SHT30;61346;48.930;2.266;2023-02-15T16:31:18;16.46;53.33
73149;SHT30;61346;48.930;2.266;2023-02-15T16:33:47;16.38;53.66
73149;SHT30;61346;48.930;2.266;2023-02-15T16:36:27;16.28;53.86
73149;SHT30;61346;48.930;2.266;2023-02-15T16:41:27;16.06;54.06
73149;SHT30;61346;48.930;2.266;2023-02-15T16:43:55;15.98;54.28
73149;SHT30;61346;48.930;2.266;2023-02-15T16:46:30;15.84;54.32
73149;SHT30;61346;48.930;2.266;2023-02-15T16:49:07;15.73;54.67
73149;SHT30;61346;48.930;2.266;2023-02-15T16:51:36;15.61;54.83
73149;SHT30;61346;48.930;2.266;2023-02-15T16:54:07;15.51;54.91
73149;SHT30;61346;48.930;2.266;2023-02-15T16:56:33;15.40;55.10
73149;SHT30;61346;48.930;2.266;2023-02-15T16:59:00;15.32;55.45
73149;SHT30;61346;48.930;2.266;2023-02-15T17:01:28;15.22;55.49
73149;SHT30;61346;48.930;2.266;2023-02-15T17:04:33;15.16;55.74
73149;SHT30;61346;48.930;2.266;2023-02-15T17:09:32;14.92;56.23
73149;SHT30;61346;48.930;2.266;2023-02-15T17:11:57;14.84;56.29
73149;SHT30;61346;48.930;2.266;2023-02-15T17:14:31;14.74;56.50
73149;SHT30;61346;48.930;2.266;2023-02-15T17:17:05;14.67;56.65
73149;SHT30;61346;48.930;2.266;2023-02-15T17:22:17;14.48;57.06
73149;SHT30;61346;48.930;2.266;2023-02-15T17:24:45;14.41;57.29
73149;SHT30;61346;48.930;2.266;2023-02-15T17:27:20;14.30;57.55
73149;SHT30;61346;48.930;2.266;2023-02-15T17:29:56;14.20;57.61
73149;SHT30;61346;48.930;2.266;2023-02-15T17:32:24;14.12;58.07
73149;SHT30;61346;48.930;2.266;2023-02-15T17:37:47;14.01;58.22
73149;SHT30;61346;48.930;2.266;2023-02-15T17:40:39;13.90;58.56
73149;SHT30;61346;48.930;2.266;2023-02-15T17:43:04;13.83;58.89
73149;SHT30;61346;48.930;2.266;2023-02-15T17:45:40;13.78;59.16
73149;SHT30;61346;48.930;2.266;2023-02-15T17:48:37;13.71;59.19
73149;SHT30;61346;48.930;2.266;2023-02-15T17:51:06;13.69;58.97
73149;SHT30;61346;48.930;2.266;2023-02-15T17:57:32;13.51;59.22
73149;SHT30;61346;48.930;2.266;2023-02-15T18:06:29;13.28;59.76
73149;SHT30;61346;48.930;2.266;2023-02-15T18:09:49;13.20;59.76
73149;SHT30;61346;48.930;2.266;2023-02-15T18:12:58;13.14;59.91
73149;SHT30;61346;48.930;2.266;2023-02-15T18:59:16;12.26;62.11
73149;SHT30;61346;48.930;2.266;2023-02-15T19:40:33;11.75;63.41
73149;SHT30;61346;48.930;2.266;2023-02-15T19:55:36;11.48;64.33
73149;SHT30;61346;48.930;2.266;2023-02-15T20:01:05;11.42;64.15
73149;SHT30;61346;48.930;2.266;2023-02-15T20:03:52;11.38;64.18
73149;SHT30;61346;48.930;2.266;2023-02-15T20:09:22;11.31;64.15
73149;SHT30;61346;48.930;2.266;2023-02-15T20:12:26;11.27;64.27
73149;SHT30;61346;48.930;2.266;2023-02-15T20:15:34;11.24;64.64
73149;SHT30;61346;48.930;2.266;2023-02-15T20:18:26;11.19;64.35
73149;SHT30;61346;48.930;2.266;2023-02-15T20:21:18;11.14;64.34
73149;SHT30;61346;48.930;2.266;2023-02-15T20:23:43;11.10;64.40
73149;SHT30;61346;48.930;2.266;2023-02-15T20:26:30;11.04;64.59
73149;SHT30;61346;48.930;2.266;2023-02-15T20:32:33;10.95;64.67
73149;SHT30;61346;48.930;2.266;2023-02-15T20:35:25;10.93;65.09
73149;SHT30;61346;48.930;2.266;2023-02-15T20:38:48;10.86;65.20
73149;SHT30;61346;48.930;2.266;2023-02-15T20:55:21;10.52;65.65
73149;SHT30;61346;48.930;2.266;2023-02-15T21:04:32;10.41;65.62
73149;SHT30;61346;48.930;2.266;2023-02-15T21:20:56;10.22;65.84
73149;SHT30;61346;48.930;2.266;2023-02-15T21:26:56;10.20;66.09
73149;SHT30;61346;48.930;2.266;2023-02-15T21:33:08;10.13;66.24
73149;SHT30;61346;48.930;2.266;2023-02-15T21:35:40;10.11;66.28
73149;SHT30;61346;48.930;2.266;2023-02-15T21:41:36;10.04;66.36
73149;SHT30;61346;48.930;2.266;2023-02-15T21:44:26;10.03;66.71
73149;SHT30;61346;48.930;2.266;2023-02-15T21:47:27;9.96;66.68
73149;SHT30;61346;48.930;2.266;2023-02-15T21:50:17;9.96;66.47
73149;SHT30;61346;48.930;2.266;2023-02-15T21:53:11;9.94;66.54
73149;SHT30;61346;48.930;2.266;2023-02-15T21:55:39;9.91;66.79
73149;SHT30;61346;48.930;2.266;2023-02-15T21:58:05;9.90;66.90
73149;SHT30;61346;48.930;2.266;2023-02-15T22:05:59;9.85;66.73
73149;SHT30;61346;48.930;2.266;2023-02-15T22:08:25;9.80;66.86
73149;SHT30;61346;48.930;2.266;2023-02-15T22:10:52;9.80;67.06
73149;SHT30;61346;48.930;2.266;2023-02-15T22:13:28;9.78;67.11
73149;SHT30;61346;48.930;2.266;2023-02-15T22:15:58;9.73;67.00
73149;SHT30;61346;48.930;2.266;2023-02-15T22:18:31;9.72;67.05
73149;SHT30;61346;48.930;2.266;2023-02-15T22:21:00;9.69;67.12
73149;SHT30;61346;48.930;2.266;2023-02-15T22:23:26;9.65;67.08
73149;SHT30;61346;48.930;2.266;2023-02-15T22:25:55;9.63;67.24
73149;SHT30;61346;48.930;2.266;2023-02-15T22:28:27;9.61;67.39
73149;SHT30;61346;48.930;2.266;2023-02-15T22:30:54;9.61;67.38
73149;SHT30;61346;48.930;2.266;2023-02-15T22:33:23;9.56;67.55
73149;SHT30;61346;48.930;2.266;2023-02-15T22:35:50;9.56;67.40
73149;SHT30;61346;48.930;2.266;2023-02-15T22:38:15;9.53;67.26
73149;SHT30;61346;48.930;2.266;2023-02-15T22:40:42;9.51;67.39
73149;SHT30;61346;48.930;2.266;2023-02-15T22:43:18;9.48;67.40
73149;SHT30;61346;48.930;2.266;2023-02-15T22:45:45;9.45;67.55
73149;SHT30;61346;48.930;2.266;2023-02-15T22:48:11;9.44;67.61
73149;SHT30;61346;48.930;2.266;2023-02-15T22:50:36;9.39;67.51
73149;SHT30;61346;48.930;2.266;2023-02-15T22:53:04;9.38;67.45
73149;SHT30;61346;48.930;2.266;2023-02-15T22:55:32;9.34;67.49
73149;SHT30;61346;48.930;2.266;2023-02-15T22:58:01;9.30;67.48
73149;SHT30;61346;48.930;2.266;2023-02-15T23:00:31;9.27;67.88
73149;SHT30;61346;48.930;2.266;2023-02-15T23:02:57;9.27;67.76
73149;SHT30;61346;48.930;2.266;2023-02-15T23:05:29;9.25;67.95
73149;SHT30;61346;48.930;2.266;2023-02-15T23:07:55;9.25;67.69
73149;SHT30;61346;48.930;2.266;2023-02-15T23:10:24;9.25;67.92
73149;SHT30;61346;48.930;2.266;2023-02-15T23:12:55;9.21;67.89
73149;SHT30;61346;48.930;2.266;2023-02-15T23:15:46;9.18;67.77
73149;SHT30;61346;48.930;2.266;2023-02-15T23:20:43;9.15;67.84
73149;SHT30;61346;48.930;2.266;2023-02-15T23:23:10;9.11;67.96
73149;SHT30;61346;48.930;2.266;2023-02-15T23:25:39;9.10;67.85
73149;SHT30;61346;48.930;2.266;2023-02-15T23:28:17;9.07;67.82
73149;SHT30;61346;48.930;2.266;2023-02-15T23:30:43;9.07;68.42
73149;SHT30;61346;48.930;2.266;2023-02-15T23:33:10;9.07;68.31
73149;SHT30;61346;48.930;2.266;2023-02-15T23:35:39;9.01;68.10
73149;SHT30;61346;48.930;2.266;2023-02-15T23:38:26;8.97;68.40
73149;SHT30;61346;48.930;2.266;2023-02-15T23:40:57;8.96;68.31
73149;SHT30;61346;48.930;2.266;2023-02-15T23:43:47;8.91;68.41
73149;SHT30;61346;48.930;2.266;2023-02-15T23:46:30;8.90;68.44
73149;SHT30;61346;48.930;2.266;2023-02-15T23:48:58;8.88;68.34
73149;SHT30;61346;48.930;2.266;2023-02-15T23:51:28;8.87;68.45
73149;SHT30;61346;48.930;2.266;2023-02-15T23:53:55;8.83;68.46
73149;SHT30;61346;48.930;2.266;2023-02-15T23:56:20;8.80;68.51
73149;SHT30;61346;48.930;2.266;2023-02-15T23:58:46;8.76;68.56
